Welcome to the New NWS' Forecast!
Most changes are behind the scenes, but click here for differences you might notice.

Terminal Aerodrome Forecast (TAF)

Issued by National Weather Service (NWS)

                            
819 
FTUS42 KKEY 161020 AAB
TAFMTH
TAF AMD
KMTH 161020Z 1610/1706 12011KT P6SM VCSH SCT025=